Ana Sayfa
METAR-TAF:

METAR-TAF

Havaalanları :

Tekirdağ Çorlu Havalimanı

Çorlu, Türkiye

Enlem: 41-08N, Boylam: 027-55E, yükseklik: 173 m

Güncel hava durumu gözlemi

Rapor saat 11:50 UTC de 49 dakika önce yapıldı.
Rüzgar güney/güneydoğudan 8 kt, doğu/güneydoğu ve güney arasında değişken
Sıcaklık 12°C
Nem 71%
Basınç 1015 hPa
Görüş mesafesi 10 km veya daha fazla
2100 ft yükseklikte parçalı bulutlu

METAR: LTBU 091150Z 15008KT 110V180 9999 SCT021 12/07 Q1015 RMK RWY22 14007KT

Saat: 15:39 (12:39 UTC)

Tahmin

Rapor saat 10:40 UTC de 1 saat ve 59 dakika önce yapıldı.
Ayın 09'si saat 12 UTC'den ayın 10'si saat 12 UTC'ye kadar geçerli Tahmin
Rüzgar değişken yönden 2 kt
Görüş mesafesi 10 km veya daha fazla
1500 m altında bulut yok ve kümülonimbus yok

TAF: LTBU 091040Z 0912/1012 VRB02KT CAVOK

4.000'den fazla havaalanı için hava durumu gözlemleri ve tahminleri (METAR ve TAF raporları).

Kullanılabilir istasyonlar harita üzerinde sarı ve kırmızı noktalarla gösterilir.

İstasyonun adını görmek için fareyi noktanın üzerinde gezdirin.

Sonrasında hava gözlem ve tahminlerini görmek için tıklayın.

Haritayı değiştirmek için: yaklaştırmak için siyah artı işaretli yeşil düğmeye ve uzaklaştırmak için de eksi işaretli düğmeye hızla tıklayın; bitişik haritalar için yeşil okları kullanın.


METAR-TAF: